Davidsonville, Maryland
Current Conditions -  °F | °C
As of 11:54 AM on Sunday 23 Nov 2014 (Local Time) from KNAK Reporting Station
Clear Clear  
Wind Chill: 47°   Ceiling: Unl
Heat Index: 47°   Visibility: 10mi
Dew Point: 34°   Wind: 0mph
Humidity: 61%   Direction: NA
Pressure: 30.19"   Gusts: NA
Location:  38.92°N, 76.63°W
Report Text: KNAK 231654Z AUTO 00000KT 10SM CLR 08/01 A3019 RMK AO2 SLP224 T00830011
Loading
Personal Weather Stations






























Interactive Weather Map New forecast layout! Learn more

10-Day Weather Forecast

Advertisements
Track Severe Weather on mobile